Time;durP1;ratioP1;P1;durP2;ratioP2;P2;SDS_P1;SDS_P2;PMS_P1;PMS_P2;Temp;Humidity;BMP_temperature;BMP_pressure;BME280_temperature;BME280_humidity;BME280_pressure;Samples;Min_cycle;Max_cycle;Signal;HPM_P1;HPM_P2
2024/03/30 00:02:23;;;;;;;;;;;;;;;7.16;100.00;97666.56;4909839;29;19923;-85
2024/03/30 00:04:48;;;;;;;;;;;;;;;7.20;100.00;97659.31;4909120;29;19986;-85
2024/03/30 00:07:14;;;;;;;;;;;;;;;7.24;100.00;97651.13;4909953;29;19939;-93
2024/03/30 00:09:39;;;;;;;;;;;;;;;7.26;100.00;97648.41;4909728;29;20367;-81
2024/03/30 00:12:04;;;;;;;;;;;;;;;7.29;100.00;97653.44;4910650;29;19928;-82
2024/03/30 00:14:30;;;;;;;;;;;;;;;7.32;100.00;97655.06;4908742;29;19923;-83
2024/03/30 06:32:08;;;;;;;;;;;;;;;4.38;100.00;97566.00;5244503;23;19931;-82
2024/03/30 06:34:34;;;;;;;;;;;;;;;4.25;100.00;97573.69;4925708;29;20263;-84
2024/03/30 06:36:59;;;;;;;;;;;;;;;4.13;100.00;97574.31;4908400;29;20005;-84
2024/03/30 06:39:24;;;;;;;;;;;;;;;4.21;100.00;97571.28;4908761;29;20370;-81
2024/03/30 06:44:33;;;;;;;;;;;;;;;4.90;100.00;97580.72;4925846;29;19945;-81
2024/03/30 06:46:59;;;;;;;;;;;;;;;5.30;100.00;97585.50;4924786;29;20358;-81
2024/03/30 06:49:24;;;;;;;;;;;;;;;5.55;100.00;97592.84;4908708;29;20375;-81
2024/03/30 06:51:49;;;;;;;;;;;;;;;5.72;100.00;97578.75;4908202;29;19922;-81
2024/03/30 06:54:15;;;;;;;;;;;;;;;5.89;100.00;97575.97;4925444;29;19926;-81
2024/03/30 06:56:40;;;;;;;;;;;;;;;6.03;100.00;97564.69;4925928;29;19925;-82
2024/03/30 06:59:06;;;;;;;;;;;;;;;6.14;100.00;97564.03;4925761;29;20449;-82
2024/03/30 07:01:31;;;;;;;;;;;;;;;6.24;100.00;97575.69;4924250;29;20321;-82
2024/03/30 07:03:57;;;;;;;;;;;;;;;6.31;100.00;97582.25;4925296;29;19923;-86
2024/03/30 07:06:22;;;;;;;;;;;;;;;6.36;100.00;97585.44;4925723;29;20426;-82
2024/03/30 07:08:47;;;;;;;;;;;;;;;6.45;100.00;97591.13;4925127;29;19926;-81
2024/03/30 07:11:13;;;;;;;;;;;;;;;6.50;100.00;97591.69;4925130;29;19928;-82
2024/03/30 07:13:38;;;;;;;;;;;;;;;6.56;100.00;97586.03;4925436;29;19918;-83
2024/03/30 07:16:03;;;;;;;;;;;;;;;6.62;100.00;97593.56;4907124;29;19919;-82
2024/03/30 07:18:29;;;;;;;;;;;;;;;6.68;100.00;97594.97;4925195;29;19924;-82
2024/03/30 07:20:54;;;;;;;;;;;;;;;6.72;100.00;97607.84;4925001;29;20359;-83
2024/03/30 07:23:20;;;;;;;;;;;;;;;6.77;100.00;97598.81;4925464;29;19923;-82
2024/03/30 07:25:45;;;;;;;;;;;;;;;6.83;100.00;97609.81;4908317;29;19919;-82
2024/03/30 07:28:11;;;;;;;;;;;;;;;6.86;100.00;97614.00;4924989;29;20342;-82
2024/03/30 07:30:37;;;;;;;;;;;;;;;6.89;100.00;97621.72;4923757;29;20302;-83
2024/03/30 07:33:02;;;;;;;;;;;;;;;6.93;100.00;97625.88;4924639;29;20371;-82
2024/03/30 07:35:27;;;;;;;;;;;;;;;6.99;100.00;97630.75;4925169;29;19919;-84
2024/03/30 07:37:53;;;;;;;;;;;;;;;7.02;100.00;97625.31;4927069;29;19929;-83
2024/03/30 07:40:18;;;;;;;;;;;;;;;7.05;100.00;97619.84;4911672;29;19966;-83
2024/03/30 07:42:43;;;;;;;;;;;;;;;7.11;100.00;97628.28;4928573;29;19926;-83
2024/03/30 07:45:08;;;;;;;;;;;;;;;7.14;100.00;97626.31;4928528;29;19922;-84
2024/03/30 07:47:34;;;;;;;;;;;;;;;7.18;100.00;97629.59;4910684;29;19927;-84
2024/03/30 07:49:59;;;;;;;;;;;;;;;7.21;100.00;97634.66;4929146;29;19966;-84
2024/03/30 07:52:24;;;;;;;;;;;;;;;7.25;100.00;97626.47;4928419;29;19938;-84
2024/03/30 07:54:49;;;;;;;;;;;;;;;7.29;100.00;97627.09;4928473;29;20013;-83
2024/03/30 07:57:14;;;;;;;;;;;;;;;7.32;100.00;97626.91;4929019;29;20347;-84
2024/03/30 07:59:40;;;;;;;;;;;;;;;7.33;100.00;97628.63;4911350;29;19942;-83
2024/03/30 08:02:05;;;;;;;;;;;;;;;7.35;100.00;97626.72;4926822;29;20454;-83
2024/03/30 08:04:30;;;;;;;;;;;;;;;7.36;100.00;97636.34;4928602;29;20285;-83
2024/03/30 08:06:56;;;;;;;;;;;;;;;7.38;100.00;97639.69;4928843;29;19923;-83
2024/03/30 08:09:22;;;;;;;;;;;;;;;7.43;100.00;97634.13;4928352;29;19919;-83
2024/03/30 08:11:48;;;;;;;;;;;;;;;7.43;100.00;97634.97;4911226;29;19923;-83
2024/03/30 08:14:16;;;;;;;;;;;;;;;7.46;100.00;97637.41;4928800;29;20374;-85
2024/03/30 08:16:41;;;;;;;;;;;;;;;7.48;100.00;97633.84;4926920;29;20291;-83
2024/03/30 08:19:09;;;;;;;;;;;;;;;7.50;100.00;97634.59;4927897;29;19923;-83
2024/03/30 08:21:34;;;;;;;;;;;;;;;7.52;100.00;97624.81;4928784;29;19920;-83
2024/03/30 08:24:00;;;;;;;;;;;;;;;7.55;100.00;97629.88;4927934;29;19923;-82
2024/03/30 08:26:26;;;;;;;;;;;;;;;7.55;100.00;97638.63;4928490;29;20006;-85
2024/03/30 08:28:51;;;;;;;;;;;;;;;7.56;100.00;97637.69;4928039;29;19959;-83
2024/03/30 08:31:16;;;;;;;;;;;;;;;7.61;100.00;97637.38;4926623;29;20019;-82
2024/03/30 08:33:42;;;;;;;;;;;;;;;7.60;100.00;97644.44;4927754;29;19922;-86
2024/03/30 08:36:07;;;;;;;;;;;;;;;7.63;100.00;97646.88;4928295;29;20373;-82
2024/03/30 08:43:43;;;;;;;;;;;;;;;6.12;100.00;97660.56;4986369;23;19934;-81
2024/03/30 08:46:08;;;;;;;;;;;;;;;5.86;100.00;97652.38;4899542;29;19931;-84
2024/03/30 08:48:36;;;;;;;;;;;;;;;5.79;100.00;97653.66;4898447;29;20006;-89
2024/03/30 08:51:02;;;;;;;;;;;;;;;5.63;100.00;97654.56;4899225;29;19927;-83
2024/03/30 08:53:28;;;;;;;;;;;;;;;5.54;100.00;97662.09;4898501;29;19919;-81
2024/03/30 08:56:00;;;;;;;;;;;;;;;5.50;100.00;97669.28;4882427;29;20355;-85
2024/03/30 08:58:25;;;;;;;;;;;;;;;5.47;100.00;97669.47;4880961;29;20351;-83
2024/03/30 09:00:51;;;;;;;;;;;;;;;5.43;100.00;97666.16;4899198;29;20010;-80
2024/03/30 09:03:16;;;;;;;;;;;;;;;5.23;100.00;97672.53;4882284;29;19926;-82
2024/03/30 09:05:43;;;;;;;;;;;;;;;5.21;100.00;97679.63;4882166;29;19967;-81
2024/03/30 09:08:08;;;;;;;;;;;;;;;5.18;100.00;97682.41;4882256;29;19927;-83
2024/03/30 09:10:33;;;;;;;;;;;;;;;5.09;100.00;97685.56;4899152;29;20377;-82
2024/03/30 09:12:58;;;;;;;;;;;;;;;5.10;100.00;97682.00;4897780;29;19923;-91
2024/03/30 09:15:24;;;;;;;;;;;;;;;4.98;100.00;97687.88;4898577;29;20298;-81
2024/03/30 09:17:49;;;;;;;;;;;;;;;4.91;100.00;97685.63;4898543;29;19970;-82
2024/03/30 09:20:15;;;;;;;;;;;;;;;4.89;100.00;97684.00;4898764;29;20284;-83
2024/03/30 09:22:41;;;;;;;;;;;;;;;4.84;100.00;97699.97;4898805;29;19923;-81
2024/03/30 09:25:12;;;;;;;;;;;;;;;4.85;100.00;97704.31;4898628;29;19922;-85
2024/03/30 09:27:37;;;;;;;;;;;;;;;4.77;100.00;97709.13;4897247;29;19926;-83
2024/03/30 09:30:03;;;;;;;;;;;;;;;4.79;100.00;97716.91;4898573;29;20006;-81
2024/03/30 09:32:28;;;;;;;;;;;;;;;4.72;100.00;97724.22;4898165;29;20287;-82
2024/03/30 09:34:53;;;;;;;;;;;;;;;4.71;100.00;97722.56;4898652;29;19931;-82
2024/03/30 09:37:18;;;;;;;;;;;;;;;4.64;100.00;97726.41;4881719;29;20010;-82
2024/03/30 09:39:44;;;;;;;;;;;;;;;4.59;100.00;97725.81;4898641;29;19919;-82
2024/03/30 09:42:15;;;;;;;;;;;;;;;4.64;100.00;97734.28;4896928;29;19935;-82
2024/03/30 09:44:41;;;;;;;;;;;;;;;4.57;100.00;97732.91;4898058;29;20185;-82
2024/03/30 09:47:07;;;;;;;;;;;;;;;4.59;100.00;97741.53;4898445;29;19969;-80
2024/03/30 09:49:32;;;;;;;;;;;;;;;4.57;100.00;97738.16;4897544;29;20279;-81
2024/03/30 09:52:05;;;;;;;;;;;;;;;4.55;100.00;97744.31;4898112;29;19947;-84
2024/03/30 09:54:30;;;;;;;;;;;;;;;4.51;100.00;97755.88;4898165;29;19923;-82
2024/03/30 09:56:56;;;;;;;;;;;;;;;4.48;100.00;97753.44;4879730;29;19967;-84
2024/03/30 09:59:21;;;;;;;;;;;;;;;4.39;100.00;97763.50;4881104;29;19920;-86
2024/03/30 10:01:47;;;;;;;;;;;;;;;4.47;100.00;97764.84;4880838;29;19936;-86
2024/03/30 10:04:12;;;;;;;;;;;;;;;4.46;100.00;97765.75;4897899;29;19976;-82
2024/03/30 10:06:50;;;;;;;;;;;;;;;4.39;100.00;97759.13;4897976;29;19924;-83
2024/03/30 10:09:19;;;;;;;;;;;;;;;4.46;100.00;97768.38;4880932;29;20030;-84
2024/03/30 10:11:45;;;;;;;;;;;;;;;4.38;100.00;97773.16;4879736;29;19927;-86
2024/03/30 10:14:26;;;;;;;;;;;;;;;4.41;100.00;97791.38;4897324;29;19927;-85
2024/03/30 10:16:52;;;;;;;;;;;;;;;4.39;100.00;97801.09;4897485;29;20029;-85
2024/03/30 10:19:18;;;;;;;;;;;;;;;4.49;100.00;97802.31;4897752;29;19970;-85
2024/03/30 10:21:44;;;;;;;;;;;;;;;4.45;100.00;97798.19;4880626;29;19951;-85
2024/03/30 10:24:10;;;;;;;;;;;;;;;4.41;100.00;97798.41;4897595;29;19946;-85
2024/03/30 10:26:37;;;;;;;;;;;;;;;4.37;100.00;97784.56;4879554;29;20360;-85
2024/03/30 10:29:04;;;;;;;;;;;;;;;4.36;100.00;97794.22;4897398;29;19962;-87
2024/03/30 10:31:31;;;;;;;;;;;;;;;4.35;100.00;97789.88;4897545;29;19927;-86
2024/03/30 10:33:58;;;;;;;;;;;;;;;4.32;100.00;97794.44;4878938;29;20054;-86
2024/03/30 10:36:23;;;;;;;;;;;;;;;4.31;100.00;97798.00;4897553;29;20302;-85
2024/03/30 10:38:49;;;;;;;;;;;;;;;4.35;100.00;97804.78;4897416;29;19920;-84
2024/03/30 10:41:14;;;;;;;;;;;;;;;4.37;100.00;97810.78;4865086;29;19919;-87
2024/03/30 10:43:39;;;;;;;;;;;;;;;4.40;100.00;97817.66;4896048;29;20367;-85
2024/03/30 10:46:05;;;;;;;;;;;;;;;4.31;100.00;97825.06;4897227;29;19919;-86
2024/03/30 10:48:30;;;;;;;;;;;;;;;4.32;100.00;97825.91;4897247;29;19931;-87
2024/03/30 10:50:56;;;;;;;;;;;;;;;4.36;100.00;97822.22;4897269;29;19919;-85
2024/03/30 10:53:22;;;;;;;;;;;;;;;4.35;100.00;97823.97;4881053;29;19923;-86
2024/03/30 10:55:47;;;;;;;;;;;;;;;4.31;100.00;97830.31;4899055;29;19920;-85
2024/03/30 10:58:12;;;;;;;;;;;;;;;4.34;100.00;97829.28;4895642;29;19942;-86
2024/03/30 11:00:38;;;;;;;;;;;;;;;4.31;100.00;97832.09;4897389;29;19965;-83
2024/03/30 11:03:06;;;;;;;;;;;;;;;4.26;100.00;97826.19;4897002;29;19920;-84
2024/03/30 11:05:32;;;;;;;;;;;;;;;4.33;100.00;97828.47;4897119;29;19930;-83
2024/03/30 11:07:58;;;;;;;;;;;;;;;4.27;100.00;97831.38;4896126;29;19920;-84
2024/03/30 11:10:23;;;;;;;;;;;;;;;4.30;100.00;97839.09;4896842;29;19930;-81
2024/03/30 11:12:49;;;;;;;;;;;;;;;4.29;100.00;97841.78;4894991;29;19919;-83
2024/03/30 11:15:14;;;;;;;;;;;;;;;4.37;100.00;97850.13;4897215;29;19975;-84
2024/03/30 11:17:42;;;;;;;;;;;;;;;4.39;100.00;97847.44;4896888;29;20010;-84
2024/03/30 11:20:12;;;;;;;;;;;;;;;4.33;100.00;97845.97;4879966;29;20010;-85
2024/03/30 11:22:55;;;;;;;;;;;;;;;4.32;100.00;97842.50;4880068;29;20010;-87
2024/03/30 11:25:21;;;;;;;;;;;;;;;4.24;100.00;97839.38;4896145;29;20018;-87
2024/03/30 11:27:50;;;;;;;;;;;;;;;4.71;100.00;97843.25;4895152;29;19927;-88
2024/03/30 11:30:34;;;;;;;;;;;;;;;5.18;100.00;97850.47;4880189;29;19920;-85
2024/03/30 11:33:08;;;;;;;;;;;;;;;5.50;100.00;97858.44;4896564;29;20287;-85
2024/03/30 11:35:35;;;;;;;;;;;;;;;5.70;100.00;97872.31;4896163;29;20048;-84
2024/03/30 11:38:06;;;;;;;;;;;;;;;5.84;100.00;97882.94;4895816;29;19920;-83
2024/03/30 11:40:31;;;;;;;;;;;;;;;5.97;100.00;97880.53;4896122;29;20372;-82
2024/03/30 11:43:03;;;;;;;;;;;;;;;6.06;100.00;97879.16;4895141;29;19930;-82
2024/03/30 11:45:30;;;;;;;;;;;;;;;6.16;100.00;97883.81;4896613;29;19919;-87
2024/03/30 11:47:56;;;;;;;;;;;;;;;6.23;100.00;97883.50;4879559;29;19943;-82
2024/03/30 11:50:21;;;;;;;;;;;;;;;6.34;100.00;97876.69;4895871;29;20359;-84
2024/03/30 11:52:47;;;;;;;;;;;;;;;6.42;100.00;97878.06;4896583;29;19921;-88
2024/03/30 11:55:12;;;;;;;;;;;;;;;6.47;100.00;97878.63;4896577;29;20466;-82
2024/03/30 11:57:38;;;;;;;;;;;;;;;6.54;100.00;97877.34;4895093;29;20287;-82
2024/03/30 12:00:03;;;;;;;;;;;;;;;6.62;100.00;97875.16;4896467;29;19923;-83
2024/03/30 12:02:30;;;;;;;;;;;;;;;6.66;100.00;97874.03;4896629;29;20261;-85
2024/03/30 12:05:00;;;;;;;;;;;;;;;6.72;100.00;97876.31;4896342;29;19920;-83
2024/03/30 12:07:31;;;;;;;;;;;;;;;6.80;100.00;97872.41;4879166;29;20015;-84
2024/03/30 12:10:00;;;;;;;;;;;;;;;6.83;100.00;97880.97;4895950;29;20371;-82
2024/03/30 12:12:27;;;;;;;;;;;;;;;6.87;100.00;97869.28;4894820;29;20018;-83
2024/03/30 12:14:53;;;;;;;;;;;;;;;6.93;100.00;97868.09;4896462;29;19919;-84
2024/03/30 12:17:19;;;;;;;;;;;;;;;6.96;100.00;97860.03;4879665;29;19987;-83
2024/03/30 12:19:48;;;;;;;;;;;;;;;7.00;100.00;97858.88;4879534;29;20375;-86
2024/03/30 12:22:14;;;;;;;;;;;;;;;7.03;100.00;97853.44;4878585;29;20006;-83
2024/03/30 12:24:40;;;;;;;;;;;;;;;7.07;100.00;97840.97;4899086;29;20327;-87
2024/03/30 12:27:08;;;;;;;;;;;;;;;7.10;100.00;97840.78;4898223;29;20022;-86
2024/03/30 12:29:33;;;;;;;;;;;;;;;7.14;100.00;97838.81;4882843;29;19919;-89
2024/03/30 12:31:59;;;;;;;;;;;;;;;7.16;100.00;97842.19;4899434;29;19924;-84
2024/03/30 12:34:24;;;;;;;;;;;;;;;7.20;100.00;97839.28;4899617;29;19923;-85
2024/03/30 12:36:50;;;;;;;;;;;;;;;7.23;100.00;97836.47;4899694;29;20410;-89
2024/03/30 12:39:16;;;;;;;;;;;;;;;7.26;100.00;97835.44;4882651;29;20290;-84
2024/03/30 12:41:43;;;;;;;;;;;;;;;7.29;100.00;97832.59;4898149;29;19928;-85
2024/03/30 12:44:08;;;;;;;;;;;;;;;7.28;100.00;97839.66;4899140;29;19932;-84
2024/03/30 12:46:34;;;;;;;;;;;;;;;7.33;100.00;97834.13;4882368;29;19919;-82
2024/03/30 12:49:02;;;;;;;;;;;;;;;7.34;100.00;97834.94;4899319;29;20019;-87
2024/03/30 12:51:29;;;;;;;;;;;;;;;7.36;100.00;97828.66;4881961;29;19930;-82
2024/03/30 12:53:55;;;;;;;;;;;;;;;7.38;100.00;97823.31;4899273;29;19927;-84
2024/03/30 12:56:24;;;;;;;;;;;;;;;7.41;100.00;97815.22;4898853;29;19927;-85
2024/03/30 12:58:49;;;;;;;;;;;;;;;7.41;100.00;97825.75;4898090;29;19930;-86
2024/03/30 13:01:18;;;;;;;;;;;;;;;7.44;100.00;97831.66;4899073;29;20088;-89
2024/03/30 13:03:43;;;;;;;;;;;;;;;7.46;100.00;97834.22;4899212;29;20015;-83
2024/03/30 13:06:10;;;;;;;;;;;;;;;7.48;100.00;97829.69;4899045;29;20395;-86
2024/03/30 13:08:48;;;;;;;;;;;;;;;7.50;100.00;97830.47;4898772;29;19920;-86
2024/03/30 13:11:14;;;;;;;;;;;;;;;7.55;100.00;97824.91;4898919;29;19923;-83
2024/03/30 13:13:39;;;;;;;;;;;;;;;7.55;100.00;97822.28;4897621;29;19924;-85
2024/03/30 13:16:06;;;;;;;;;;;;;;;7.56;100.00;97809.00;4898785;29;19926;-83
2024/03/30 13:18:31;;;;;;;;;;;;;;;7.58;100.00;97793.94;4881795;29;19955;-82
2024/03/30 13:20:58;;;;;;;;;;;;;;;7.59;100.00;97790.34;4898839;29;20419;-81
2024/03/30 13:23:23;;;;;;;;;;;;;;;7.24;100.00;97780.22;4898580;29;20429;-81
2024/03/30 13:25:49;;;;;;;;;;;;;;;6.50;100.00;97773.22;4898674;29;20023;-81
2024/03/30 13:28:14;;;;;;;;;;;;;;;6.25;100.00;97760.63;4897011;29;20071;-81
2024/03/30 13:30:40;;;;;;;;;;;;;;;6.09;100.00;97760.66;4898590;29;19923;-81
2024/03/30 13:33:05;;;;;;;;;;;;;;;6.02;100.00;97759.34;4898487;29;19926;-87
2024/03/30 13:35:32;;;;;;;;;;;;;;;5.82;100.00;97758.63;4897962;29;20467;-85
2024/03/30 13:37:57;;;;;;;;;;;;;;;5.86;100.00;97764.56;4898259;29;19920;-85
2024/03/30 13:40:22;;;;;;;;;;;;;;;5.80;100.00;97755.22;4898253;29;20014;-85
2024/03/30 13:42:48;;;;;;;;;;;;;;;5.68;100.00;97755.91;4896865;29;19931;-86
2024/03/30 13:45:14;;;;;;;;;;;;;;;5.52;100.00;97761.16;4898252;29;20256;-85
2024/03/30 13:47:39;;;;;;;;;;;;;;;5.50;100.00;97758.59;4897524;29;19919;-86
2024/03/30 13:50:11;;;;;;;;;;;;;;;5.46;100.00;97759.72;4897423;29;20395;-86
2024/03/30 13:52:37;;;;;;;;;;;;;;;5.50;100.00;97769.13;4881227;29;19920;-87
2024/03/30 13:55:02;;;;;;;;;;;;;;;5.38;100.00;97762.75;4881341;29;19930;-84
2024/03/30 13:57:27;;;;;;;;;;;;;;;5.35;100.00;97772.59;4896611;29;19920;-84
2024/03/30 13:59:53;;;;;;;;;;;;;;;5.34;100.00;97773.50;4881206;29;20002;-86
2024/03/30 14:02:19;;;;;;;;;;;;;;;5.27;100.00;97778.25;4881059;29;19927;-82
2024/03/30 14:04:44;;;;;;;;;;;;;;;5.28;100.00;97783.41;4897974;29;19919;-82
2024/03/30 14:07:10;;;;;;;;;;;;;;;5.14;100.00;97777.19;4897892;29;19919;-82
2024/03/30 14:09:36;;;;;;;;;;;;;;;5.15;100.00;97784.13;4897742;29;19919;-83
2024/03/30 14:12:01;;;;;;;;;;;;;;;5.09;100.00;97774.81;4879788;29;19962;-81
2024/03/30 14:14:26;;;;;;;;;;;;;;;5.13;100.00;97763.22;4897713;29;19959;-81
2024/03/30 14:16:51;;;;;;;;;;;;;;;5.01;100.00;97753.34;4897779;29;19919;-82
2024/03/30 14:19:17;;;;;;;;;;;;;;;4.99;100.00;97757.84;4880795;29;19923;-82
2024/03/30 14:21:42;;;;;;;;;;;;;;;4.91;100.00;97761.72;4880054;29;19919;-85
2024/03/30 14:24:07;;;;;;;;;;;;;;;4.91;100.00;97763.50;4897636;29;20374;-82
2024/03/30 14:26:32;;;;;;;;;;;;;;;4.88;100.00;97766.28;4896123;29;19919;-82
2024/03/30 14:28:58;;;;;;;;;;;;;;;4.94;100.00;97770.38;4897454;29;19920;-81
2024/03/30 14:31:26;;;;;;;;;;;;;;;4.89;100.00;97767.97;4880834;29;19920;-90
2024/03/30 14:33:51;;;;;;;;;;;;;;;4.85;100.00;97780.41;4880637;29;19947;-82
2024/03/30 14:36:27;;;;;;;;;;;;;;;4.80;100.00;97787.66;4897349;29;20321;-87
2024/03/30 14:38:53;;;;;;;;;;;;;;;4.87;100.00;97798.72;4897393;29;20359;-85
2024/03/30 14:41:18;;;;;;;;;;;;;;;4.69;100.00;97803.09;4897151;29;19923;-89
2024/03/30 14:43:44;;;;;;;;;;;;;;;4.66;100.00;97814.63;4878380;29;19923;-83
2024/03/30 14:46:09;;;;;;;;;;;;;;;4.71;100.00;97817.00;4896989;29;19923;-83
2024/03/30 14:48:34;;;;;;;;;;;;;;;4.61;100.00;97823.63;4879820;29;19920;-83
2024/03/30 14:50:59;;;;;;;;;;;;;;;4.58;100.00;97819.41;4897188;29;20014;-86
2024/03/30 14:53:25;;;;;;;;;;;;;;;4.69;100.00;97813.59;4897228;29;20290;-82
2024/03/30 14:55:56;;;;;;;;;;;;;;;4.67;100.00;97812.81;4897192;29;19919;-83
2024/03/30 14:58:21;;;;;;;;;;;;;;;4.66;100.00;97827.72;4895725;29;19926;-82
2024/03/30 15:00:46;;;;;;;;;;;;;;;4.55;100.00;97816.94;4897259;29;19935;-89
2024/03/30 15:03:12;;;;;;;;;;;;;;;4.48;100.00;97826.00;4897006;29;19920;-82
2024/03/30 15:05:37;;;;;;;;;;;;;;;4.61;100.00;97832.38;4897114;29;20781;-82
2024/03/30 15:08:02;;;;;;;;;;;;;;;4.53;100.00;97832.75;4897047;29;19920;-88
2024/03/30 15:10:28;;;;;;;;;;;;;;;4.49;100.00;97839.03;4880042;29;20022;-82
2024/03/30 15:12:53;;;;;;;;;;;;;;;4.55;100.00;97843.16;4895769;29;20332;-83
2024/03/30 15:15:19;;;;;;;;;;;;;;;4.50;100.00;97848.63;4897038;29;19971;-83
2024/03/30 15:17:44;;;;;;;;;;;;;;;4.65;100.00;97857.50;4896764;29;19968;-83
2024/03/30 15:20:11;;;;;;;;;;;;;;;4.43;100.00;97860.31;4880169;29;19919;-83
2024/03/30 15:22:36;;;;;;;;;;;;;;;4.46;100.00;97868.03;4880094;29;19931;-82
2024/03/30 15:25:01;;;;;;;;;;;;;;;4.45;100.00;97871.63;4880015;29;19927;-82
2024/03/30 15:27:26;;;;;;;;;;;;;;;4.39;100.00;97879.78;4895547;29;19920;-83
2024/03/30 15:32:36;;;;;;;;;;;;;;;4.42;100.00;97879.63;4896651;29;20291;-88
2024/03/30 15:35:02;;;;;;;;;;;;;;;4.36;100.00;97890.41;4880177;29;19924;-83
2024/03/30 15:37:30;;;;;;;;;;;;;;;4.36;100.00;97898.28;4895919;29;19976;-87
2024/03/30 15:39:55;;;;;;;;;;;;;;;4.34;100.00;97900.09;4896713;29;19919;-88
2024/03/30 15:42:20;;;;;;;;;;;;;;;4.35;100.00;97899.19;4895504;29;19931;-86
2024/03/30 15:44:46;;;;;;;;;;;;;;;4.33;100.00;97908.91;4896628;29;20028;-82
2024/03/30 15:47:14;;;;;;;;;;;;;;;4.24;100.00;97912.78;4896752;29;19960;-82
2024/03/30 15:49:40;;;;;;;;;;;;;;;4.17;100.00;97911.41;4879210;29;19931;-82
2024/03/30 15:52:05;;;;;;;;;;;;;;;4.29;100.00;97910.81;4896688;29;19920;-82
2024/03/30 15:54:31;;;;;;;;;;;;;;;4.33;100.00;97901.03;4879825;29;19973;-90
2024/03/30 15:56:56;;;;;;;;;;;;;;;4.17;100.00;97914.84;4878517;29;19966;-82
2024/03/30 15:59:21;;;;;;;;;;;;;;;4.24;100.00;97918.03;4898933;29;19943;-84
2024/03/30 16:01:47;;;;;;;;;;;;;;;4.23;100.00;97921.59;4900271;29;20287;-84
2024/03/30 16:04:12;;;;;;;;;;;;;;;4.23;100.00;97931.22;4900211;29;19923;-88
2024/03/30 16:06:38;;;;;;;;;;;;;;;4.19;100.00;97931.34;4899987;29;19920;-81
2024/03/30 16:09:03;;;;;;;;;;;;;;;4.19;100.00;97923.50;4899951;29;19920;-89
2024/03/30 16:11:31;;;;;;;;;;;;;;;4.67;100.00;97930.88;4898767;29;19920;-89
2024/03/30 16:13:56;;;;;;;;;;;;;;;5.15;100.00;97932.00;4900024;29;20074;-84
2024/03/30 16:16:22;;;;;;;;;;;;;;;5.43;100.00;97930.63;4900050;29;20430;-84
2024/03/30 16:18:47;;;;;;;;;;;;;;;5.64;100.00;97942.63;4899758;29;19920;-91
2024/03/30 16:21:12;;;;;;;;;;;;;;;5.81;100.00;97941.75;4883399;29;19931;-82
2024/03/30 16:23:38;;;;;;;;;;;;;;;5.93;100.00;97940.25;4899628;29;19919;-83
2024/03/30 16:26:03;;;;;;;;;;;;;;;6.04;100.00;97958.13;4900071;29;20366;-82
2024/03/30 16:28:30;;;;;;;;;;;;;;;6.14;100.00;97947.94;4898291;29;19919;-82
2024/03/30 16:30:56;;;;;;;;;;;;;;;6.22;100.00;97945.75;4899691;29;19927;-87
2024/03/30 16:33:22;;;;;;;;;;;;;;;6.30;100.00;97954.09;4882174;29;19931;-82
2024/03/30 16:35:48;;;;;;;;;;;;;;;10.85;100.00;97949.03;4899273;29;19920;-86
2024/03/30 16:38:13;;;;;;;;;;;;;;;7.59;100.00;97950.28;4899617;29;19923;-86
2024/03/30 16:40:38;;;;;;;;;;;;;;;7.07;100.00;97954.22;4899526;29;19923;-84
2024/03/30 16:43:04;;;;;;;;;;;;;;;6.97;100.00;97964.38;4898371;29;19927;-90
2024/03/30 16:45:29;;;;;;;;;;;;;;;9.11;100.00;97960.19;4882442;29;19978;-82
2024/03/30 16:47:55;;;;;;;;;;;;;;;8.31;100.00;97968.75;4899385;29;19980;-79
2024/03/30 16:50:21;;;;;;;;;;;;;;;7.41;100.00;97978.56;4899335;29;19920;-89
2024/03/30 16:52:46;;;;;;;;;;;;;;;6.84;100.00;97984.47;4899247;29;19923;-80
2024/03/30 16:55:12;;;;;;;;;;;;;;;6.67;100.00;97981.00;4899045;29;20420;-84
2024/03/30 16:57:37;;;;;;;;;;;;;;;6.25;100.00;97987.66;4898031;29;20267;-85
2024/03/30 17:00:06;;;;;;;;;;;;;;;5.75;100.00;97980.66;4899227;29;19927;-82
2024/03/30 17:02:32;;;;;;;;;;;;;;;5.53;100.00;97989.63;4899022;29;19923;-82
2024/03/30 17:04:57;;;;;;;;;;;;;;;5.35;100.00;97990.59;4899355;29;20280;-83
2024/03/30 17:07:22;;;;;;;;;;;;;;;5.25;100.00;97991.03;4898968;29;19920;-80
2024/03/30 17:09:47;;;;;;;;;;;;;;;5.18;100.00;97992.25;4897936;29;19979;-82
2024/03/30 17:12:14;;;;;;;;;;;;;;;5.06;100.00;97987.63;4880952;29;19926;-85
2024/03/30 17:14:39;;;;;;;;;;;;;;;5.00;100.00;97995.78;4882018;29;20287;-87
2024/03/30 17:17:04;;;;;;;;;;;;;;;4.96;100.00;97986.34;4882151;29;19920;-82
2024/03/30 17:19:31;;;;;;;;;;;;;;;4.91;100.00;97982.19;4898802;29;19930;-83
2024/03/30 17:21:56;;;;;;;;;;;;;;;4.88;100.00;97976.22;4898017;29;19920;-83
2024/03/30 17:24:22;;;;;;;;;;;;;;;4.85;100.00;97971.13;4898788;29;19979;-82
2024/03/30 17:26:47;;;;;;;;;;;;;;;4.78;100.00;97959.22;4897505;29;20030;-83
2024/03/30 17:29:12;;;;;;;;;;;;;;;4.76;100.00;97945.34;4898595;29;20332;-83
2024/03/30 17:31:38;;;;;;;;;;;;;;;4.68;100.00;97943.94;4898569;29;19930;-83
2024/03/30 17:34:03;;;;;;;;;;;;;;;4.67;100.00;97944.84;4898448;29;19927;-83
2024/03/30 17:36:28;;;;;;;;;;;;;;;4.61;100.00;97949.53;4898106;29;19930;-82
2024/03/30 17:38:54;;;;;;;;;;;;;;;4.60;100.00;97956.56;4898274;29;19935;-83
2024/03/30 17:41:19;;;;;;;;;;;;;;;4.55;100.00;97913.97;4898485;29;19923;-83
2024/03/30 17:43:44;;;;;;;;;;;;;;;4.65;100.00;97888.16;4880185;29;20383;-83
2024/03/30 17:46:11;;;;;;;;;;;;;;;4.63;100.00;97871.63;4898330;29;19923;-83
2024/03/30 17:48:39;;;;;;;;;;;;;;;4.54;100.00;97893.91;4881349;29;19955;-89
2024/03/30 17:51:05;;;;;;;;;;;;;;;4.42;100.00;97895.34;4881256;29;19920;-85
2024/03/30 17:53:34;;;;;;;;;;;;;;;4.51;100.00;97900.13;4898278;29;19931;-88
2024/03/30 17:56:00;;;;;;;;;;;;;;;4.38;100.00;97904.28;4897662;29;19959;-84
2024/03/30 17:58:26;;;;;;;;;;;;;;;4.44;100.00;97897.91;4896920;29;19920;-83
2024/03/30 18:00:56;;;;;;;;;;;;;;;4.42;100.00;97889.25;4898209;29;19970;-89
2024/03/30 18:03:23;;;;;;;;;;;;;;;4.32;100.00;97892.34;4914929;23;19935;-83
2024/03/30 18:05:48;;;;;;;;;;;;;;;4.34;100.00;97927.19;4853061;29;19977;-83
2024/03/30 18:08:16;;;;;;;;;;;;;;;4.31;100.00;97944.84;4851483;29;19932;-89
2024/03/30 18:10:54;;;;;;;;;;;;;;;4.29;100.00;97938.78;4869241;29;19931;-90
2024/03/30 18:13:23;;;;;;;;;;;;;;;4.25;100.00;97942.50;4869171;29;19920;-93
2024/03/30 18:15:48;;;;;;;;;;;;;;;4.30;100.00;97940.50;4866874;29;19930;-87
2024/03/30 18:18:14;;;;;;;;;;;;;;;4.24;100.00;97941.63;4869171;29;19924;-83
2024/03/30 18:20:42;;;;;;;;;;;;;;;4.12;100.00;97945.69;4869859;29;19942;-91
2024/03/30 18:23:17;;;;;;;;;;;;;;;4.20;100.00;97947.97;4853230;29;19928;-83
2024/03/30 18:25:42;;;;;;;;;;;;;;;4.20;100.00;97947.97;4851651;29;19976;-85
2024/03/30 18:28:07;;;;;;;;;;;;;;;4.24;100.00;97948.66;4868859;29;19925;-87
2024/03/30 18:30:34;;;;;;;;;;;;;;;4.36;100.00;97941.06;4867005;29;19927;-85
2024/03/30 18:33:00;;;;;;;;;;;;;;;4.41;100.00;97940.00;4868438;29;19924;-82
2024/03/30 18:35:35;;;;;;;;;;;;;;;4.41;100.00;97940.84;4869385;29;19924;-84
2024/03/30 18:38:21;;;;;;;;;;;;;;;4.46;100.00;97949.34;4869082;29;19920;-89
2024/03/30 18:40:46;;;;;;;;;;;;;;;4.43;100.00;97943.41;4869148;29;19923;-84
2024/03/30 18:43:12;;;;;;;;;;;;;;;4.45;100.00;97944.16;4868300;29;19920;-84
2024/03/30 18:45:38;;;;;;;;;;;;;;;4.46;100.00;97938.84;4869133;29;19924;-85
2024/03/30 18:48:03;;;;;;;;;;;;;;;4.47;100.00;97940.56;4869590;29;20276;-85
2024/03/30 18:50:29;;;;;;;;;;;;;;;4.43;100.00;97930.28;4869100;29;19927;-87
2024/03/30 18:52:55;;;;;;;;;;;;;;;4.38;100.00;97920.00;4869197;29;19924;-87
2024/03/30 18:55:33;;;;;;;;;;;;;;;4.33;100.00;97922.84;4868853;29;19920;-93
2024/03/30 18:57:58;;;;;;;;;;;;;;;4.30;100.00;97922.16;4867541;29;19920;-83
2024/03/30 19:00:24;;;;;;;;;;;;;;;4.24;100.00;97922.44;4868778;29;20002;-89
2024/03/30 19:02:49;;;;;;;;;;;;;;;4.25;100.00;97918.91;4852200;29;19927;-85
2024/03/30 19:05:15;;;;;;;;;;;;;;;4.27;100.00;97911.81;4869676;29;20007;-86
2024/03/30 19:07:40;;;;;;;;;;;;;;;4.28;100.00;97919.59;4852081;29;20328;-85
2024/03/30 19:10:06;;;;;;;;;;;;;;;4.14;100.00;97922.88;4868894;29;19924;-85